YXZ weather

Wawa Airport
Wawa, Ontario, Canada

Public forecast

Using degrees Celsius for public forecast. Weather courtesy of forecast.io.

Current aviation weather report (METAR) for Wawa Airport

Report is more than 2 hours old.

Retrieved 2019/12/16 00:00 UTC (2 hours ago):

CYXZ 160000Z 00000KT 6SM -SN OVC028 M13/M15 A2997 RMK SC8 SLP179

Aviation forecast (TAF) for Wawa Airport

Forecast is more than 6 hours old.

Retrieved 2019/12/15 20:00 UTC (6 hours ago):

TAF CYXZ 151938Z 1520/1524 24005KT P6SM BKN025 TEMPO 1520/1524 21/2SM -SHSN BKN020 PROB30 1520/1524 1SM -SHSN RMK NXT FCST WILL BE ISSUED AT 161245Z